Time;durP1;ratioP1;P1;durP2;ratioP2;P2;SDS_P1;SDS_P2;PMS_P1;PMS_P2;Temp;Humidity;BMP_temperature;BMP_pressure;BME280_temperature;BME280_humidity;BME280_pressure;Samples;Min_cycle;Max_cycle;Signal;HPM_P1;HPM_P2
2024/01/14 00:00:08;;;;;;;52.90;30.50;;;2.70;99.90;;;;;;4994406;28;20224;-55
2024/01/14 00:02:34;;;;;;;56.73;30.63;;;2.60;99.90;;;;;;4994238;28;20184;-53
2024/01/14 00:05:00;;;;;;;54.57;29.57;;;2.60;99.90;;;;;;4994252;28;20181;-55
2024/01/14 00:07:25;;;;;;;55.87;28.97;;;2.60;99.90;;;;;;4994126;28;20177;-56
2024/01/14 00:09:51;;;;;;;55.10;28.30;;;2.60;99.90;;;;;;4994103;28;20255;-57
2024/01/14 00:12:16;;;;;;;52.63;28.20;;;2.50;99.90;;;;;;4994062;28;20611;-54
2024/01/14 00:14:42;;;;;;;53.13;29.03;;;2.50;99.90;;;;;;4994177;28;20212;-55
2024/01/14 00:17:10;;;;;;;55.23;30.23;;;2.50;99.90;;;;;;4994060;28;20208;-56
2024/01/14 00:19:35;;;;;;;52.90;28.20;;;2.50;99.90;;;;;;4993761;28;20181;-56
2024/01/14 00:22:01;;;;;;;50.83;28.67;;;2.60;99.90;;;;;;4994024;28;20185;-55
2024/01/14 00:24:27;;;;;;;54.10;29.50;;;2.60;99.90;;;;;;4993921;28;20184;-55
2024/01/14 00:26:53;;;;;;;50.00;27.70;;;2.60;99.90;;;;;;4993961;28;20530;-56
2024/01/14 00:29:18;;;;;;;53.77;29.40;;;2.70;99.90;;;;;;4993729;28;20181;-56
2024/01/14 00:31:44;;;;;;;50.80;29.67;;;2.60;99.90;;;;;;4994010;28;20177;-54
2024/01/14 00:34:10;;;;;;;53.17;28.90;;;2.50;99.90;;;;;;4993896;28;20181;-57
2024/01/14 00:36:41;;;;;;;54.20;28.45;;;2.70;99.90;;;;;;4993901;28;20185;-57
2024/01/14 00:39:07;;;;;;;49.63;26.77;;;2.70;99.90;;;;;;4993833;28;20177;-56
2024/01/14 00:41:33;;;;;;;50.87;28.43;;;2.80;99.90;;;;;;4993749;28;20647;-56
2024/01/14 00:44:00;;;;;;;52.33;27.77;;;2.70;99.90;;;;;;4993854;28;20178;-55
2024/01/14 00:46:26;;;;;;;49.73;27.00;;;2.50;99.90;;;;;;4993622;28;20261;-56
2024/01/14 00:48:52;;;;;;;50.17;26.83;;;2.50;99.90;;;;;;4993926;28;20217;-57
2024/01/14 00:51:17;;;;;;;50.30;26.90;;;2.60;99.90;;;;;;4993732;28;20212;-55
2024/01/14 00:53:43;;;;;;;50.73;28.23;;;2.60;99.90;;;;;;4993191;28;20190;-56
2024/01/14 00:56:09;;;;;;;50.33;27.17;;;2.50;99.90;;;;;;4993586;28;20297;-57
2024/01/14 00:58:34;;;;;;;50.50;28.70;;;2.40;99.90;;;;;;4993723;28;20182;-56
2024/01/14 01:01:00;;;;;;;55.43;28.47;;;2.60;99.90;;;;;;4993603;28;20559;-56
2024/01/14 01:03:25;;;;;;;52.43;26.50;;;2.60;99.90;;;;;;4993611;28;20219;-58
2024/01/14 01:05:54;;;;;;;50.87;26.43;;;2.50;99.90;;;;;;4993633;28;20220;-53
2024/01/14 01:08:19;;;;;;;48.27;26.40;;;2.50;99.90;;;;;;4993520;28;20268;-55
2024/01/14 01:10:45;;;;;;;48.27;26.23;;;2.50;99.90;;;;;;4993484;28;20236;-54
2024/01/14 01:13:11;;;;;;;52.97;28.60;;;2.50;99.90;;;;;;4993711;28;20184;-53
2024/01/14 01:15:37;;;;;;;49.33;27.47;;;2.50;99.90;;;;;;4993552;28;20269;-56
2024/01/14 01:18:03;;;;;;;50.30;25.90;;;2.50;99.90;;;;;;4993453;28;20271;-56
2024/01/14 01:20:29;;;;;;;47.47;26.07;;;2.40;99.90;;;;;;4993525;28;20638;-55
2024/01/14 01:22:55;;;;;;;47.93;25.33;;;2.40;99.90;;;;;;4993467;28;20216;-56
2024/01/14 01:25:21;;;;;;;48.07;25.33;;;2.50;99.90;;;;;;4993374;28;20518;-56
2024/01/14 01:27:46;;;;;;;50.27;25.97;;;2.50;99.90;;;;;;4993364;28;20556;-55
2024/01/14 01:30:12;;;;;;;51.67;26.80;;;2.60;99.90;;;;;;4994613;28;20212;-56
2024/01/14 01:32:38;;;;;;;50.07;26.03;;;2.50;99.90;;;;;;4997141;28;20181;-56
2024/01/14 01:35:04;;;;;;;45.23;26.27;;;2.40;99.90;;;;;;4997030;28;20223;-56
2024/01/14 01:37:30;;;;;;;45.40;25.20;;;2.40;99.90;;;;;;4996853;28;20174;-56
2024/01/14 01:39:56;;;;;;;52.80;26.90;;;2.40;99.90;;;;;;4996746;28;20187;-56
2024/01/14 01:42:22;;;;;;;50.57;27.17;;;2.40;99.90;;;;;;4996733;28;20180;-54
2024/01/14 01:44:48;;;;;;;44.20;25.40;;;2.50;99.90;;;;;;4996992;28;20196;-54
2024/01/14 01:47:16;;;;;;;47.37;26.20;;;2.50;99.90;;;;;;4996820;28;20180;-56
2024/01/14 01:49:43;;;;;;;46.00;25.47;;;2.50;99.90;;;;;;4996765;28;20185;-55
2024/01/14 01:52:10;;;;;;;43.27;24.57;;;2.40;99.90;;;;;;4996574;28;20205;-56
2024/01/14 01:54:38;;;;;;;46.47;25.67;;;2.50;99.90;;;;;;4996421;28;20267;-56
2024/01/14 01:57:05;;;;;;;50.50;26.10;;;2.40;99.90;;;;;;4996922;28;20173;-53
2024/01/14 01:59:31;;;;;;;45.47;24.63;;;2.50;99.90;;;;;;4996511;28;20180;-56
2024/01/14 02:01:58;;;;;;;51.07;26.37;;;2.40;99.90;;;;;;4996454;28;20646;-56
2024/01/14 02:04:25;;;;;;;42.77;22.70;;;2.40;99.90;;;;;;4996453;28;20219;-56
2024/01/14 02:06:51;;;;;;;45.87;25.30;;;2.50;99.90;;;;;;4996318;28;20570;-55
2024/01/14 02:09:17;;;;;;;47.20;24.27;;;2.40;99.90;;;;;;4996236;28;20176;-54
2024/01/14 02:11:43;;;;;;;43.00;22.60;;;2.40;99.90;;;;;;4996782;28;20659;-54
2024/01/14 02:14:08;;;;;;;48.20;24.47;;;2.40;99.90;;;;;;4996285;28;20185;-56
2024/01/14 02:16:34;;;;;;;40.90;22.43;;;2.40;99.90;;;;;;4996007;28;20207;-56
2024/01/14 02:19:01;;;;;;;42.07;22.97;;;2.40;99.90;;;;;;4996212;28;20262;-55
2024/01/14 02:21:34;;;;;;;46.57;24.07;;;2.30;99.90;;;;;;4996080;28;20542;-56
2024/01/14 02:24:13;;;;;;;45.40;24.17;;;2.40;99.90;;;;;;4995996;28;20323;-55
2024/01/14 02:26:39;;;;;;;42.77;22.73;;;2.40;99.90;;;;;;4996129;28;20178;-57
2024/01/14 02:29:07;;;;;;;45.50;23.77;;;2.30;99.90;;;;;;4996163;28;20510;-56
2024/01/14 02:31:33;;;;;;;41.70;21.47;;;2.30;99.90;;;;;;4995889;28;20186;-56
2024/01/14 02:33:59;;;;;;;42.27;22.77;;;2.40;99.90;;;;;;4995745;28;20258;-55
2024/01/14 02:36:24;;;;;;;43.53;22.93;;;2.30;99.90;;;;;;4995637;28;20235;-53
2024/01/14 02:38:50;;;;;;;42.10;22.83;;;2.30;99.90;;;;;;4996214;28;20631;-56
2024/01/14 02:41:16;;;;;;;42.27;24.03;;;2.30;99.90;;;;;;4995604;28;20702;-55
2024/01/14 02:43:41;;;;;;;43.23;22.70;;;2.40;99.90;;;;;;4995644;28;20184;-55
2024/01/14 02:46:07;;;;;;;40.63;23.50;;;2.40;99.90;;;;;;4995739;28;20184;-54
2024/01/14 02:48:32;;;;;;;39.67;22.33;;;2.40;99.90;;;;;;4995661;28;20193;-56
2024/01/14 02:50:58;;;;;;;42.17;23.23;;;2.40;99.90;;;;;;4995527;28;20606;-56
2024/01/14 02:53:25;;;;;;;42.17;22.50;;;2.50;99.90;;;;;;4995661;28;20178;-54
2024/01/14 02:55:51;;;;;;;37.43;22.30;;;2.40;99.90;;;;;;4994110;28;20579;-55
2024/01/14 02:58:16;;;;;;;41.53;23.53;;;2.40;99.90;;;;;;4995360;28;20185;-55
2024/01/14 03:00:42;;;;;;;43.87;22.57;;;2.60;99.90;;;;;;4995549;28;20225;-55
2024/01/14 03:03:08;;;;;;;41.50;22.57;;;2.50;99.90;;;;;;4995271;28;20170;-54
2024/01/14 03:05:33;;;;;;;40.57;23.00;;;2.60;99.90;;;;;;4995471;28;20178;-56
2024/01/14 03:07:59;;;;;;;40.80;22.03;;;2.70;99.90;;;;;;4994132;28;20219;-56
2024/01/14 03:10:25;;;;;;;43.30;24.40;;;2.60;99.90;;;;;;4995308;28;20219;-57
2024/01/14 03:12:50;;;;;;;39.97;22.07;;;2.50;99.90;;;;;;4995174;28;20177;-56
2024/01/14 03:15:16;;;;;;;44.57;23.73;;;2.50;99.90;;;;;;4995099;28;20219;-53
2024/01/14 03:17:41;;;;;;;44.10;22.63;;;2.60;99.90;;;;;;4995079;28;20231;-55
2024/01/14 03:20:08;;;;;;;40.03;22.07;;;2.50;99.90;;;;;;4994908;28;20205;-57
2024/01/14 03:22:33;;;;;;;44.13;23.43;;;2.50;99.90;;;;;;4995166;28;20526;-52
2024/01/14 03:24:59;;;;;;;39.93;21.57;;;2.40;99.90;;;;;;4995090;28;20193;-56
2024/01/14 03:27:25;;;;;;;42.67;24.13;;;2.40;99.90;;;;;;4994906;28;20180;-56
2024/01/14 03:29:50;;;;;;;39.67;22.30;;;2.40;99.90;;;;;;4994890;28;20181;-55
2024/01/14 03:32:16;;;;;;;42.37;22.70;;;2.50;99.90;;;;;;4994819;28;20180;-56
2024/01/14 03:34:42;;;;;;;37.63;21.93;;;2.50;99.90;;;;;;4994563;28;20220;-54
2024/01/14 03:37:08;;;;;;;39.90;23.33;;;2.50;99.90;;;;;;4994874;28;20180;-56
2024/01/14 03:39:34;;;;;;;44.10;23.13;;;2.40;99.90;;;;;;4994729;28;20641;-57
2024/01/14 03:41:59;;;;;;;41.90;22.83;;;2.40;99.90;;;;;;4994559;28;20652;-56
2024/01/14 03:44:25;;;;;;;39.30;22.08;;;2.40;99.90;;;;;;4994647;28;20188;-56
2024/01/14 03:46:50;;;;;;;41.77;22.67;;;2.60;99.90;;;;;;4994561;28;20177;-57
2024/01/14 03:49:16;;;;;;;43.73;21.67;;;2.60;99.90;;;;;;4994395;28;20260;-56
2024/01/14 03:51:42;;;;;;;40.17;22.10;;;2.60;99.90;;;;;;4994347;28;20185;-54
2024/01/14 03:54:07;;;;;;;38.43;21.87;;;2.70;99.90;;;;;;4993851;28;20184;-55
2024/01/14 03:56:33;;;;;;;41.70;22.08;;;2.60;99.90;;;;;;4994314;28;20255;-54
2024/01/14 03:58:59;;;;;;;39.97;22.23;;;2.60;99.90;;;;;;4994396;28;20187;-54
2024/01/14 04:01:25;;;;;;;42.10;22.67;;;2.60;99.90;;;;;;4994229;28;20307;-56
2024/01/14 04:03:50;;;;;;;38.00;20.63;;;2.50;99.90;;;;;;4994127;28;20243;-56
2024/01/14 04:06:23;;;;;;;38.87;20.93;;;2.40;99.90;;;;;;4994304;28;20184;-55
2024/01/14 04:08:49;;;;;;;37.33;21.53;;;2.50;99.90;;;;;;4994290;28;20181;-52
2024/01/14 04:11:15;;;;;;;38.87;21.57;;;2.50;99.90;;;;;;4994238;28;20235;-55
2024/01/14 04:13:40;;;;;;;40.03;22.37;;;2.40;99.90;;;;;;4994143;28;20184;-56
2024/01/14 04:16:09;;;;;;;39.03;21.40;;;2.40;99.90;;;;;;4994019;28;20216;-55
2024/01/14 04:18:35;;;;;;;40.13;22.33;;;2.50;99.90;;;;;;4993931;28;20204;-55
2024/01/14 04:21:01;;;;;;;38.53;23.70;;;2.50;99.90;;;;;;4994186;28;20209;-56
2024/01/14 04:23:27;;;;;;;38.53;22.60;;;2.50;99.90;;;;;;4994135;28;20227;-53
2024/01/14 04:25:52;;;;;;;43.00;22.50;;;2.70;99.90;;;;;;4994029;28;20641;-55
2024/01/14 04:28:18;;;;;;;37.87;22.13;;;2.70;99.90;;;;;;4993978;28;20678;-58
2024/01/14 04:30:44;;;;;;;37.80;21.17;;;2.60;99.90;;;;;;4993835;28;20264;-52
2024/01/14 04:33:11;;;;;;;43.90;22.50;;;2.50;99.90;;;;;;4993751;28;20177;-57
2024/01/14 04:35:36;;;;;;;39.20;22.47;;;2.60;99.90;;;;;;4993966;28;20212;-55
2024/01/14 04:38:02;;;;;;;40.93;22.20;;;2.60;99.90;;;;;;4994191;28;20173;-55
2024/01/14 04:40:28;;;;;;;39.53;21.13;;;2.50;99.90;;;;;;4993934;28;20177;-54
2024/01/14 04:42:54;;;;;;;39.40;21.93;;;2.40;99.90;;;;;;4976450;28;20269;-56
2024/01/14 04:45:19;;;;;;;38.40;20.97;;;2.40;99.90;;;;;;4993770;28;20205;-57
2024/01/14 04:47:46;;;;;;;38.00;21.73;;;2.40;99.90;;;;;;4993926;28;20181;-57
2024/01/14 04:50:12;;;;;;;37.20;22.80;;;2.50;99.90;;;;;;4993921;28;20187;-56
2024/01/14 04:52:37;;;;;;;38.40;20.77;;;2.40;99.90;;;;;;4993837;28;20185;-57
2024/01/14 04:55:04;;;;;;;40.27;21.70;;;2.50;99.90;;;;;;4993678;28;20212;-55
2024/01/14 04:57:30;;;;;;;42.47;20.67;;;2.40;99.90;;;;;;4993641;28;20212;-55
2024/01/14 04:59:56;;;;;;;39.40;21.50;;;2.40;99.90;;;;;;4993477;28;20319;-54
2024/01/14 05:02:21;;;;;;;38.50;20.67;;;2.40;99.90;;;;;;4993580;28;20184;-57
2024/01/14 05:04:47;;;;;;;40.67;22.83;;;2.50;99.90;;;;;;4995875;28;20182;-56
2024/01/14 05:07:13;;;;;;;37.07;21.70;;;2.40;99.90;;;;;;4997570;28;20187;-57
2024/01/14 05:09:39;;;;;;;39.27;21.83;;;2.50;99.90;;;;;;4997581;28;20213;-56
2024/01/14 05:12:05;;;;;;;42.27;21.70;;;2.50;99.90;;;;;;4997402;28;20176;-56
2024/01/14 05:14:30;;;;;;;40.30;22.57;;;2.50;99.90;;;;;;4997333;28;20632;-53
2024/01/14 05:16:56;;;;;;;39.80;21.87;;;2.50;99.90;;;;;;4997199;28;20217;-56
2024/01/14 05:19:22;;;;;;;43.80;21.17;;;2.50;99.90;;;;;;4997229;28;20181;-56
2024/01/14 05:21:48;;;;;;;41.63;21.27;;;2.60;99.90;;;;;;4980895;28;20192;-54
2024/01/14 05:24:13;;;;;;;37.23;22.20;;;2.50;99.90;;;;;;4977822;28;20629;-54
2024/01/14 05:26:40;;;;;;;39.23;21.70;;;2.40;99.90;;;;;;4977992;28;20179;-55
2024/01/14 05:29:06;;;;;;;42.90;22.23;;;2.30;99.90;;;;;;4977658;28;20177;-55
2024/01/14 05:31:32;;;;;;;39.60;21.47;;;2.40;99.90;;;;;;4977621;28;20178;-56
2024/01/14 05:33:57;;;;;;;41.90;21.90;;;2.50;99.90;;;;;;4976224;28;20244;-55
2024/01/14 05:36:23;;;;;;;42.37;22.63;;;2.50;99.90;;;;;;4977584;28;20224;-56
2024/01/14 05:38:48;;;;;;;36.97;21.37;;;2.30;99.90;;;;;;4977582;28;20192;-53
2024/01/14 05:41:14;;;;;;;38.97;19.80;;;2.30;99.90;;;;;;4977408;28;20181;-55
2024/01/14 05:43:40;;;;;;;37.20;21.43;;;2.40;99.90;;;;;;4977277;28;20704;-56
2024/01/14 05:46:06;;;;;;;37.30;21.93;;;2.30;99.90;;;;;;4977320;28;20189;-54
2024/01/14 05:48:31;;;;;;;35.90;22.00;;;2.30;99.90;;;;;;4977307;28;20177;-56
2024/01/14 05:50:57;;;;;;;38.70;22.37;;;2.30;99.90;;;;;;4977193;28;20210;-55
2024/01/14 05:53:23;;;;;;;39.90;21.63;;;2.40;99.90;;;;;;4977167;28;20185;-52
2024/01/14 05:55:48;;;;;;;38.93;22.47;;;2.60;99.90;;;;;;4977084;28;20210;-55
2024/01/14 05:58:14;;;;;;;38.57;21.30;;;2.50;99.90;;;;;;4977188;28;20196;-56
2024/01/14 06:00:40;;;;;;;39.20;22.53;;;2.50;99.90;;;;;;4986512;28;20234;-56
2024/01/14 06:03:05;;;;;;;38.93;21.90;;;2.60;99.90;;;;;;4996438;28;20180;-55
2024/01/14 06:05:31;;;;;;;38.83;22.23;;;2.60;99.90;;;;;;4995357;28;20189;-55
2024/01/14 06:07:57;;;;;;;39.77;23.23;;;2.50;99.90;;;;;;4996327;28;20543;-56
2024/01/14 06:10:22;;;;;;;40.33;22.40;;;2.60;99.90;;;;;;4996271;28;20203;-56
2024/01/14 06:12:48;;;;;;;37.33;20.80;;;2.50;99.90;;;;;;4996212;28;20178;-54
2024/01/14 06:15:14;;;;;;;38.23;22.80;;;2.50;99.90;;;;;;4995944;28;20205;-55
2024/01/14 06:17:39;;;;;;;39.93;21.70;;;2.50;99.90;;;;;;4995722;28;20181;-55
2024/01/14 06:20:07;;;;;;;40.40;22.83;;;2.60;99.90;;;;;;4996508;28;20228;-57
2024/01/14 06:22:32;;;;;;;38.33;21.87;;;2.60;99.90;;;;;;4996153;28;20631;-61
2024/01/14 06:24:58;;;;;;;34.80;21.47;;;2.50;99.90;;;;;;4996198;28;20195;-56
2024/01/14 06:27:25;;;;;;;38.33;20.83;;;2.70;99.90;;;;;;4996053;28;20205;-57
2024/01/14 06:29:51;;;;;;;36.93;21.70;;;2.70;99.90;;;;;;4995893;28;20267;-57
2024/01/14 06:32:17;;;;;;;38.67;20.60;;;2.80;99.90;;;;;;4995798;28;20768;-56
2024/01/14 06:34:42;;;;;;;36.67;21.87;;;2.60;99.90;;;;;;4995841;28;20224;-55
2024/01/14 06:37:08;;;;;;;34.60;20.10;;;2.40;99.90;;;;;;4995977;28;20181;-56
2024/01/14 06:39:34;;;;;;;37.70;20.87;;;2.40;99.90;;;;;;4996057;28;20182;-54
2024/01/14 06:42:00;;;;;;;36.30;21.63;;;2.50;99.90;;;;;;4995766;28;20258;-56
2024/01/14 06:44:26;;;;;;;37.67;21.57;;;2.50;99.90;;;;;;4995661;28;20180;-52
2024/01/14 06:46:52;;;;;;;44.17;22.33;;;2.50;99.90;;;;;;4995541;28;20188;-57
2024/01/14 06:49:18;;;;;;;37.77;21.03;;;2.50;99.90;;;;;;4995729;28;20188;-58
2024/01/14 06:51:45;;;;;;;40.33;21.47;;;2.60;99.90;;;;;;4994125;28;20318;-54
2024/01/14 06:54:11;;;;;;;36.20;20.20;;;2.50;99.90;;;;;;4969638;28;20187;-56
2024/01/14 06:56:46;;;;;;;35.40;20.53;;;2.30;99.90;;;;;;4965310;28;20268;-54
2024/01/14 06:59:21;;;;;;;37.70;19.97;;;2.30;99.90;;;;;;4964705;28;20183;-53
2024/01/14 07:01:47;;;;;;;40.53;20.80;;;2.20;99.90;;;;;;4980525;28;20225;-55
2024/01/14 07:04:13;;;;;;;38.97;20.80;;;2.20;99.90;;;;;;4980761;28;20190;-55
2024/01/14 07:06:40;;;;;;;37.73;21.13;;;2.30;99.90;;;;;;4982126;28;20186;-56
2024/01/14 07:09:10;;;;;;;36.97;21.07;;;2.40;99.90;;;;;;4984295;28;20664;-55
2024/01/14 07:11:36;;;;;;;37.43;20.87;;;2.40;99.90;;;;;;4962837;28;20189;-55
2024/01/14 07:14:02;;;;;;;37.70;20.53;;;2.60;99.90;;;;;;4975395;28;20236;-54
2024/01/14 07:16:29;;;;;;;38.20;20.03;;;2.50;99.90;;;;;;4975613;28;20209;-56
2024/01/14 07:18:54;;;;;;;37.80;20.93;;;2.60;99.90;;;;;;4974682;28;20263;-56
2024/01/14 07:21:22;;;;;;;37.50;20.33;;;2.40;99.90;;;;;;4956537;28;20599;-58
2024/01/14 07:23:48;;;;;;;38.63;20.27;;;2.50;99.90;;;;;;4975455;28;20206;-54
2024/01/14 07:26:15;;;;;;;39.67;22.43;;;2.50;99.90;;;;;;4975288;28;20217;-55
2024/01/14 07:28:41;;;;;;;40.33;21.13;;;2.60;99.90;;;;;;4974173;28;20174;-56
2024/01/14 07:31:07;;;;;;;41.20;22.03;;;2.50;99.90;;;;;;4975384;28;20650;-54
2024/01/14 07:33:32;;;;;;;42.13;21.77;;;2.60;99.90;;;;;;4958205;28;20275;-56
2024/01/14 07:35:58;;;;;;;36.60;21.17;;;2.60;99.90;;;;;;4975183;28;20221;-55
2024/01/14 07:38:23;;;;;;;38.80;22.00;;;2.60;99.90;;;;;;4975082;28;20284;-55
2024/01/14 07:40:49;;;;;;;39.47;21.07;;;2.40;99.90;;;;;;4974999;28;20189;-56
2024/01/14 07:43:15;;;;;;;39.40;21.17;;;2.50;99.90;;;;;;4958973;28;20186;-55
2024/01/14 07:45:41;;;;;;;37.03;20.47;;;2.50;99.90;;;;;;4972832;28;20216;-59
2024/01/14 07:48:07;;;;;;;34.10;20.03;;;2.30;99.90;;;;;;4972139;28;20276;-53
2024/01/14 07:50:33;;;;;;;36.30;21.03;;;2.40;99.90;;;;;;4975018;28;20170;-56
2024/01/14 07:52:59;;;;;;;39.33;21.47;;;2.30;99.90;;;;;;4975049;28;20492;-57
2024/01/14 07:55:25;;;;;;;35.80;21.40;;;2.40;99.90;;;;;;4974856;28;20212;-57
2024/01/14 07:57:51;;;;;;;36.87;21.27;;;2.40;99.90;;;;;;4957500;28;20177;-56
2024/01/14 08:00:17;;;;;;;40.23;21.80;;;2.40;99.90;;;;;;4974796;28;20264;-57
2024/01/14 08:02:42;;;;;;;36.33;20.50;;;2.50;99.90;;;;;;4974842;28;20185;-56
2024/01/14 08:05:09;;;;;;;37.57;21.13;;;2.50;99.90;;;;;;4975227;28;20209;-55
2024/01/14 08:07:34;;;;;;;35.87;20.47;;;2.60;99.90;;;;;;4975000;28;20571;-56
2024/01/14 08:10:01;;;;;;;39.33;21.27;;;2.60;99.90;;;;;;4974623;28;20204;-57
2024/01/14 08:12:27;;;;;;;33.47;19.63;;;2.60;99.90;;;;;;4955671;28;20183;-59
2024/01/14 08:14:53;;;;;;;38.20;21.20;;;2.60;99.90;;;;;;4955417;29;20777;-57
2024/01/14 08:17:19;;;;;;;40.77;21.90;;;2.60;99.90;;;;;;4955253;29;20319;-55
2024/01/14 08:19:45;;;;;;;38.60;21.27;;;2.70;99.90;;;;;;4955424;29;20184;-56
2024/01/14 08:22:11;;;;;;;37.77;21.47;;;2.70;99.90;;;;;;4955325;29;20198;-56
2024/01/14 08:24:41;;;;;;;36.60;21.20;;;2.60;99.90;;;;;;4955160;29;20647;-55
2024/01/14 08:27:06;;;;;;;34.17;20.05;;;2.70;99.90;;;;;;4956810;29;20174;-57
2024/01/14 08:29:32;;;;;;;37.67;23.30;;;2.70;99.90;;;;;;4955425;29;20492;-56
2024/01/14 08:31:58;;;;;;;41.20;21.97;;;2.60;99.90;;;;;;4955283;29;20174;-56
2024/01/14 08:34:23;;;;;;;39.23;21.87;;;2.60;99.90;;;;;;4955162;29;20185;-56
2024/01/14 08:36:49;;;;;;;38.83;22.37;;;2.50;99.90;;;;;;4955110;29;20187;-56
2024/01/14 08:39:15;;;;;;;36.80;22.07;;;2.50;99.90;;;;;;4957703;28;20188;-56
2024/01/14 08:41:41;;;;;;;44.27;23.40;;;2.60;99.90;;;;;;4961353;29;20175;-56
2024/01/14 08:44:10;;;;;;;40.13;22.10;;;2.60;99.90;;;;;;4962061;29;20505;-54
2024/01/14 08:46:39;;;;;;;39.43;21.63;;;2.50;99.90;;;;;;4961504;28;20310;-56
2024/01/14 08:49:05;;;;;;;40.97;22.50;;;2.50;99.90;;;;;;4961335;29;20614;-57
2024/01/14 08:51:30;;;;;;;41.20;22.13;;;2.60;99.90;;;;;;4961621;29;20184;-57
2024/01/14 08:54:00;;;;;;;37.30;21.80;;;2.50;99.90;;;;;;4961276;28;20276;-57
2024/01/14 08:56:28;;;;;;;37.37;23.77;;;2.60;99.90;;;;;;4961294;29;20690;-57
2024/01/14 08:58:54;;;;;;;40.80;23.73;;;2.60;99.90;;;;;;4961382;28;20179;-56
2024/01/14 09:01:20;;;;;;;42.67;22.43;;;2.60;99.90;;;;;;4976011;28;20694;-56
2024/01/14 09:03:46;;;;;;;41.17;22.63;;;2.70;99.90;;;;;;4980638;28;20177;-56
2024/01/14 09:06:12;;;;;;;44.03;23.97;;;2.70;99.90;;;;;;4980679;28;20241;-56
2024/01/14 09:08:37;;;;;;;39.90;23.17;;;2.70;99.90;;;;;;4980374;28;20178;-55
2024/01/14 09:11:03;;;;;;;40.13;22.03;;;2.60;99.90;;;;;;4980623;28;20181;-58
2024/01/14 09:13:29;;;;;;;42.63;23.50;;;2.80;99.90;;;;;;4980754;28;20554;-57
2024/01/14 09:15:55;;;;;;;42.87;23.10;;;2.60;99.90;;;;;;4980608;28;20209;-57
2024/01/14 09:18:20;;;;;;;40.30;24.90;;;2.70;99.90;;;;;;4979223;28;20233;-56
2024/01/14 09:20:46;;;;;;;41.47;24.43;;;2.80;99.90;;;;;;4980460;28;20184;-56
2024/01/14 09:23:12;;;;;;;43.67;25.00;;;2.80;99.90;;;;;;4980343;28;20638;-56
2024/01/14 09:25:37;;;;;;;45.95;25.73;;;2.70;99.90;;;;;;4980346;28;20638;-55
2024/01/14 09:28:04;;;;;;;44.15;25.77;;;2.60;99.90;;;;;;4980611;28;20185;-55
2024/01/14 09:30:29;;;;;;;42.13;24.42;;;2.60;99.90;;;;;;4980502;28;20175;-56
2024/01/14 09:32:55;;;;;;;46.37;25.83;;;2.50;99.90;;;;;;4980282;28;20262;-55
2024/01/14 09:35:20;;;;;;;41.90;24.77;;;2.60;99.90;;;;;;4980358;28;20241;-56
2024/01/14 09:37:46;;;;;;;46.73;26.43;;;2.50;99.90;;;;;;4980569;28;20184;-55
2024/01/14 09:40:15;;;;;;;48.13;25.93;;;2.60;99.90;;;;;;4980272;28;20181;-55
2024/01/14 09:42:44;;;;;;;43.53;24.77;;;2.70;99.90;;;;;;4980397;28;20214;-55
2024/01/14 09:45:10;;;;;;;44.77;25.67;;;3.00;99.90;;;;;;4980240;28;20284;-56
2024/01/14 09:47:38;;;;;;;46.23;25.10;;;2.80;99.90;;;;;;4980350;28;20499;-54
2024/01/14 09:50:04;;;;;;;43.87;24.97;;;2.80;99.90;;;;;;4979431;28;20217;-56
2024/01/14 09:52:33;;;;;;;48.60;25.00;;;2.80;99.90;;;;;;4976559;28;20181;-55
2024/01/14 09:55:00;;;;;;;44.97;26.10;;;2.80;99.90;;;;;;4976866;28;20217;-54
2024/01/14 09:57:29;;;;;;;43.80;24.83;;;2.90;99.90;;;;;;4976731;28;20678;-57
2024/01/14 09:59:55;;;;;;;45.42;25.67;;;2.90;99.90;;;;;;4976379;28;20275;-54
2024/01/14 10:02:22;;;;;;;44.17;24.90;;;3.00;99.90;;;;;;4976595;28;20173;-56
2024/01/14 10:04:48;;;;;;;42.90;24.45;;;3.10;99.90;;;;;;4976255;28;20564;-56
2024/01/14 10:07:14;;;;;;;44.10;25.60;;;3.00;99.90;;;;;;4976209;28;20306;-57
2024/01/14 10:09:43;;;;;;;42.07;24.30;;;3.10;99.90;;;;;;4976454;28;20205;-56
2024/01/14 10:12:09;;;;;;;41.85;24.17;;;3.20;99.90;;;;;;4976291;28;20173;-55
2024/01/14 10:14:36;;;;;;;42.90;24.47;;;3.10;99.90;;;;;;4976072;28;20268;-55
2024/01/14 10:17:02;;;;;;;44.58;25.40;;;3.00;99.90;;;;;;4976008;28;20173;-54
2024/01/14 10:19:29;;;;;;;41.50;24.30;;;3.20;99.90;;;;;;4975937;28;20184;-55
2024/01/14 10:21:56;;;;;;;39.13;22.80;;;3.30;99.90;;;;;;4976268;28;20177;-55
2024/01/14 10:24:23;;;;;;;42.40;24.07;;;3.20;99.90;;;;;;4976045;28;20618;-54
2024/01/14 10:26:53;;;;;;;39.10;23.15;;;3.30;99.90;;;;;;4976405;28;20177;-57
2024/01/14 10:29:19;;;;;;;43.30;25.05;;;3.30;99.90;;;;;;4975918;28;20173;-57
2024/01/14 10:31:45;;;;;;;42.97;26.23;;;3.40;99.90;;;;;;4975786;28;20264;-57
2024/01/14 10:34:11;;;;;;;39.33;23.97;;;3.40;99.90;;;;;;4975727;28;20173;-55
2024/01/14 10:36:37;;;;;;;41.65;24.15;;;3.40;99.90;;;;;;4975877;28;20344;-56
2024/01/14 10:39:04;;;;;;;36.80;21.85;;;3.60;99.90;;;;;;4975612;28;20308;-55
2024/01/14 10:41:30;;;;;;;38.55;23.77;;;3.40;99.90;;;;;;4975740;28;20233;-56
2024/01/14 10:43:55;;;;;;;40.92;24.17;;;3.50;99.90;;;;;;4975644;28;20174;-54
2024/01/14 10:46:22;;;;;;;40.63;22.40;;;3.50;99.90;;;;;;4975601;28;20170;-55
2024/01/14 10:49:04;;;;;;;38.63;22.58;;;3.50;99.90;;;;;;4975275;28;20177;-56
2024/01/14 10:51:34;;;;;;;35.43;20.73;;;3.60;99.90;;;;;;4975827;28;20169;-56
2024/01/14 10:54:19;;;;;;;36.10;21.67;;;3.40;99.90;;;;;;4975519;28;20257;-55
2024/01/14 10:57:06;;;;;;;37.78;23.40;;;3.60;99.90;;;;;;4975500;28;20177;-54
2024/01/14 10:59:35;;;;;;;35.33;22.38;;;3.70;99.90;;;;;;4975817;28;20664;-55
2024/01/14 11:02:13;;;;;;;37.45;22.17;;;3.60;99.90;;;;;;4975164;28;20185;-56
2024/01/14 11:04:38;;;;;;;35.40;22.02;;;3.70;99.90;;;;;;4974689;28;20185;-56
2024/01/14 11:07:05;;;;;;;36.08;21.25;;;3.60;99.90;;;;;;4975178;28;20181;-56
2024/01/14 11:09:31;;;;;;;33.55;21.63;;;3.60;99.90;;;;;;4974874;28;20585;-58
2024/01/14 11:12:10;;;;;;;34.60;20.92;;;3.70;99.90;;;;;;4974901;28;20196;-57
2024/01/14 11:15:05;;;;;;;33.72;20.67;;;3.90;99.90;;;;;;4974728;28;20181;-57
2024/01/14 11:17:46;;;;;;;33.38;20.02;;;3.80;99.90;;;;;;4967919;28;20248;-55
2024/01/14 11:20:15;;;;;;;37.17;20.63;;;3.80;99.90;;;;;;4974850;28;20199;-55
2024/01/14 11:22:42;;;;;;;32.17;20.65;;;3.80;99.90;;;;;;4974937;28;20761;-57
2024/01/14 11:25:16;;;;;;;32.05;21.60;;;3.80;99.90;;;;;;4972516;28;20674;-55
2024/01/14 11:27:41;;;;;;;30.27;19.88;;;3.70;99.90;;;;;;4974661;28;20181;-56
2024/01/14 11:30:16;;;;;;;32.30;19.20;;;3.80;99.90;;;;;;4974506;28;20193;-57
2024/01/14 11:32:42;;;;;;;31.55;20.63;;;3.80;99.90;;;;;;4974466;28;20180;-54
2024/01/14 11:35:09;;;;;;;30.88;20.55;;;3.80;99.90;;;;;;4974762;28;20217;-54
2024/01/14 11:37:47;;;;;;;30.63;18.98;;;3.60;99.90;;;;;;4974564;28;20193;-54
2024/01/14 11:40:28;;;;;;;31.27;19.40;;;3.60;99.90;;;;;;4974526;28;20176;-55
2024/01/14 11:42:57;;;;;;;31.50;19.90;;;3.50;99.90;;;;;;4973104;28;20231;-59
2024/01/14 11:45:23;;;;;;;28.63;18.23;;;3.50;99.90;;;;;;4974525;28;20186;-59
2024/01/14 11:47:51;;;;;;;30.77;18.95;;;3.50;99.90;;;;;;4974583;28;20536;-59
2024/01/14 11:50:18;;;;;;;26.50;17.13;;;3.30;99.90;;;;;;4974512;28;20204;-59
2024/01/14 11:52:49;;;;;;;28.75;18.27;;;3.30;99.90;;;;;;4974406;28;20547;-59
2024/01/14 11:55:18;;;;;;;28.90;18.07;;;3.40;99.90;;;;;;4974535;28;20569;-58
2024/01/14 11:57:44;;;;;;;29.08;17.92;;;3.20;99.90;;;;;;4974223;28;20178;-59
2024/01/14 12:00:11;;;;;;;28.48;18.08;;;3.20;99.90;;;;;;4974120;28;20236;-59
2024/01/14 12:02:38;;;;;;;30.88;18.52;;;3.20;99.90;;;;;;4974315;28;20280;-59
2024/01/14 12:05:19;;;;;;;31.67;18.27;;;3.30;99.90;;;;;;4974036;28;20189;-59
2024/01/14 12:07:45;;;;;;;30.48;19.02;;;3.40;99.90;;;;;;4974132;28;20170;-59
2024/01/14 12:10:16;;;;;;;31.98;18.83;;;3.30;99.90;;;;;;4974018;28;20227;-59
2024/01/14 12:12:42;;;;;;;32.65;20.45;;;3.40;99.90;;;;;;4973925;28;20646;-59
2024/01/14 12:15:13;;;;;;;34.47;20.80;;;3.40;99.90;;;;;;4973610;28;20213;-59
2024/01/14 12:17:39;;;;;;;32.10;19.58;;;3.40;99.90;;;;;;4974194;28;20192;-59
2024/01/14 12:20:08;;;;;;;33.20;19.97;;;3.30;99.90;;;;;;4973945;28;20185;-59
2024/01/14 12:22:35;;;;;;;31.10;20.27;;;3.30;99.90;;;;;;4973812;28;20186;-58
2024/01/14 12:25:02;;;;;;;33.27;20.70;;;3.30;99.90;;;;;;4973825;28;20255;-59
2024/01/14 12:27:27;;;;;;;35.17;21.42;;;3.30;99.90;;;;;;4973862;28;20188;-60
2024/01/14 12:29:54;;;;;;;37.37;20.93;;;3.20;99.90;;;;;;4974108;28;20275;-60
2024/01/14 12:32:20;;;;;;;38.33;21.40;;;3.30;99.90;;;;;;4973866;28;20177;-59